Sultan Azlan Shah Airport Ipoh MY
ICAO: WMKI
IATA:
Category: Medium
Scheduled Services:

Elevation: 130 ft
TransAlt. 11000 ft.

Airport Communications:
IPOH TWR:122.1

WMKI Zoom In..

If you have problems with the map follow the link
https://www.worldairports.se/pages/airport.php?
ICAO=WMKI

Runways:

(A) RW 04 length 6562 ft width 148 ft
ILS 110.50 / hdg 41

(B) RW 22 length 6562 ft width 148 ft
---- / hdg 221

Location; WMKI
Day. 05 / Time. 15.00 Zulu
* QNH: 1013
* Temperature: 25° c. 77°f.
* Wind from: 000° Speed 00 kn.
Dewpoint: 24° c.
Visibility: 8000 m.
Clouds: Few 500 ft.

WMKI 051500Z 00000KT 8000 FEW005 25/24 Q1013


Wind - Calm.

 
 
jpsmedia worldairports.se 2019   terms of use